Time;durP1;ratioP1;P1;durP2;ratioP2;P2;SDS_P1;SDS_P2;PMS_P1;PMS_P2;Temp;Humidity;BMP_temperature;BMP_pressure;BME280_temperature;BME280_humidity;BME280_pressure;Samples;Min_cycle;Max_cycle;Signal;HPM_P1;HPM_P2
2022/03/25 00:02:21;;;;;;;70.68;39.78;;;;;;;7.71;81.10;102768.78;5232535;28;20159;-67
2022/03/25 00:04:52;;;;;;;70.47;39.78;;;;;;;7.61;81.08;102766.47;5235206;28;20258;-67
2022/03/25 00:07:24;;;;;;;71.88;41.05;;;;;;;7.56;80.89;102768.41;5235363;28;20040;-67
2022/03/25 00:09:55;;;;;;;68.97;40.03;;;;;;;7.48;81.90;102765.13;5233315;28;20033;-67
2022/03/25 00:12:26;;;;;;;70.10;40.22;;;;;;;7.48;83.07;102770.44;5235343;28;20713;-67
2022/03/25 00:14:58;;;;;;;68.07;39.53;;;;;;;7.42;83.11;102773.28;5243251;28;20504;-67
2022/03/25 00:17:29;;;;;;;72.55;41.45;;;;;;;7.33;82.37;102765.63;5240424;28;20371;-67
2022/03/25 00:20:00;;;;;;;71.15;39.53;;;;;;;7.27;82.67;102769.34;5241762;28;20025;-67
2022/03/25 00:22:32;;;;;;;68.07;39.30;;;;;;;7.19;82.63;102766.94;5250539;28;20116;-67
2022/03/25 00:25:05;;;;;;;74.28;41.00;;;;;;;7.17;83.02;102770.53;5239468;28;20131;-67
2022/03/25 00:27:36;;;;;;;71.35;41.15;;;;;;;7.13;84.76;102774.19;5244394;28;20086;-67
2022/03/25 00:30:08;;;;;;;67.93;39.45;;;;;;;7.06;84.27;102770.88;5249246;28;20483;-67
2022/03/25 00:32:40;;;;;;;70.00;39.70;;;;;;;7.09;84.11;102776.09;5252893;28;20472;-67
2022/03/25 00:35:12;;;;;;;70.72;40.63;;;;;;;7.01;84.33;102771.00;5242405;28;20040;-67
2022/03/25 00:37:43;;;;;;;74.03;39.33;;;;;;;6.93;83.95;102775.69;5237937;28;20044;-67
2022/03/25 00:40:15;;;;;;;70.53;40.88;;;;;;;6.86;83.87;102776.78;5236267;28;20120;-67
2022/03/25 00:42:47;;;;;;;73.80;40.80;;;;;;;6.79;84.22;102768.16;5232431;28;20032;-67
2022/03/25 00:45:19;;;;;;;74.25;39.83;;;;;;;6.77;84.23;102766.44;5232615;28;20040;-67
2022/03/25 00:47:50;;;;;;;69.38;38.28;;;;;;;6.75;84.72;102774.47;5233805;28;20950;-67
2022/03/25 00:50:21;;;;;;;70.07;38.58;;;;;;;6.63;84.01;102772.16;5232175;28;20503;-67
2022/03/25 00:52:53;;;;;;;72.97;40.90;;;;;;;6.63;85.22;102770.34;5233847;28;20174;-67
2022/03/25 00:55:24;;;;;;;72.38;41.58;;;;;;;6.61;85.78;102764.22;5230453;28;20162;-67
2022/03/25 00:57:57;;;;;;;72.93;40.65;;;;;;;6.59;85.67;102763.41;5239752;28;20033;-67
2022/03/25 01:00:28;;;;;;;73.95;40.00;;;;;;;6.50;85.63;102765.47;5233054;28;20033;-67
2022/03/25 01:02:59;;;;;;;70.05;40.35;;;;;;;6.53;86.40;102762.72;5237556;28;20380;-67
2022/03/25 01:05:31;;;;;;;70.38;39.03;;;;;;;6.45;86.17;102765.59;5246350;28;20476;-67
2022/03/25 01:08:03;;;;;;;76.28;40.35;;;;;;;6.49;86.25;102772.53;5240029;28;20033;-67
2022/03/25 01:10:36;;;;;;;70.43;40.15;;;;;;;6.38;87.33;102764.88;5237078;28;20093;-67
2022/03/25 01:13:07;;;;;;;71.38;40.17;;;;;;;6.30;87.09;102772.19;5238554;28;20733;-67
2022/03/25 01:15:38;;;;;;;78.03;40.63;;;;;;;6.26;86.42;102773.19;5236727;28;20098;-67
2022/03/25 01:18:10;;;;;;;73.95;39.28;;;;;;;6.23;86.80;102768.84;5237469;28;20399;-67
2022/03/25 01:20:42;;;;;;;78.10;41.28;;;;;;;6.14;86.53;102770.88;5235666;28;20031;-67
2022/03/25 01:23:13;;;;;;;73.95;40.63;;;;;;;6.08;87.16;102769.25;5236632;28;20514;-67
2022/03/25 01:25:44;;;;;;;72.55;39.83;;;;;;;6.02;87.41;102772.06;5240430;28;20079;-67
2022/03/25 01:28:16;;;;;;;71.15;40.35;;;;;;;5.97;87.50;102766.88;5240369;28;20081;-67
2022/03/25 01:30:47;;;;;;;72.68;40.17;;;;;;;5.99;87.65;102772.16;5237328;28;20477;-68
2022/03/25 01:33:18;;;;;;;70.10;38.70;;;;;;;6.02;87.07;102766.75;5238399;28;20028;-67
2022/03/25 01:35:50;;;;;;;67.03;37.72;;;;;;;5.85;87.59;102760.09;5237015;28;20033;-67
2022/03/25 01:38:21;;;;;;;71.82;39.47;;;;;;;5.88;87.48;102764.44;5236731;28;20044;-67
2022/03/25 01:40:53;;;;;;;74.68;39.17;;;;;;;5.75;87.21;102757.72;5240200;28;20029;-67
2022/03/25 01:43:24;;;;;;;66.20;37.85;;;;;;;5.89;87.42;102763.53;5241241;28;20040;-67
2022/03/25 01:45:55;;;;;;;68.55;38.22;;;;;;;5.81;86.86;102755.78;5236062;28;20462;-67
2022/03/25 01:48:27;;;;;;;68.03;37.97;;;;;;;5.73;87.97;102768.34;5239460;28;20056;-67
2022/03/25 01:51:00;;;;;;;69.15;39.78;;;;;;;5.68;88.02;102763.19;5243043;28;20029;-67
2022/03/25 01:53:32;;;;;;;71.72;37.35;;;;;;;5.57;87.03;102759.06;5249065;28;20163;-67
2022/03/25 01:56:05;;;;;;;68.70;37.22;;;;;;;5.58;87.50;102761.69;5242854;28;20025;-67
2022/03/25 01:58:39;;;;;;;74.53;37.22;;;;;;;5.52;86.69;102760.94;5237520;28;20025;-67
2022/03/25 02:01:10;;;;;;;64.67;35.47;;;;;;;5.47;86.91;102769.88;5240736;28;20555;-67
2022/03/25 02:03:44;;;;;;;63.47;35.90;;;;;;;5.45;87.07;102771.69;5247502;28;20376;-67
2022/03/25 02:06:15;;;;;;;66.30;35.92;;;;;;;5.51;87.50;102768.03;5239379;28;20521;-67
2022/03/25 02:08:47;;;;;;;67.55;37.22;;;;;;;5.46;86.53;102768.13;5239120;28;20096;-67
2022/03/25 02:11:18;;;;;;;59.30;34.17;;;;;;;5.39;86.11;102765.66;5236199;28;20041;-67
2022/03/25 02:13:50;;;;;;;62.80;34.55;;;;;;;5.32;86.45;102767.59;5236667;28;20389;-67
2022/03/25 02:16:33;;;;;;;62.00;34.83;;;;;;;5.38;86.71;102769.22;5236754;28;20046;-67
2022/03/25 02:19:05;;;;;;;63.70;34.17;;;;;;;5.34;85.97;102771.06;5242887;28;20425;-67
2022/03/25 02:21:38;;;;;;;66.07;35.47;;;;;;;5.39;86.44;102758.59;5246594;28;20032;-67
2022/03/25 02:24:10;;;;;;;60.88;33.22;;;;;;;5.41;84.86;102761.22;5241360;28;20033;-67
2022/03/25 02:26:42;;;;;;;55.65;32.22;;;;;;;5.41;84.23;102766.50;5237187;28;20048;-67
2022/03/25 02:29:16;;;;;;;59.03;32.55;;;;;;;5.40;83.95;102757.69;5239132;28;20535;-67
2022/03/25 02:31:48;;;;;;;57.20;31.75;;;;;;;5.35;83.33;102754.28;5236015;28;20029;-67
2022/03/25 02:34:19;;;;;;;55.03;30.65;;;;;;;5.39;82.98;102763.00;5236211;28;20037;-67
2022/03/25 02:36:50;;;;;;;58.55;31.17;;;;;;;5.43;81.98;102754.97;5247229;28;20021;-67
2022/03/25 02:39:23;;;;;;;51.85;29.45;;;;;;;5.42;81.70;102760.28;5242178;28;20025;-67
2022/03/25 02:41:54;;;;;;;54.35;29.20;;;;;;;5.46;81.37;102746.06;5237308;28;20155;-67
2022/03/25 02:44:26;;;;;;;51.80;30.23;;;;;;;5.44;81.04;102756.69;5234699;28;20819;-67
2022/03/25 02:46:57;;;;;;;52.10;29.55;;;;;;;5.43;80.53;102752.31;5234808;28;20503;-67
2022/03/25 02:49:28;;;;;;;53.83;29.75;;;;;;;5.43;80.19;102751.47;5236909;28;20094;-67
2022/03/25 02:51:59;;;;;;;51.75;29.40;;;;;;;5.37;80.23;102757.78;5237452;28;20865;-67
2022/03/25 02:54:30;;;;;;;55.33;29.45;;;;;;;5.40;80.02;102757.69;5234073;28;20480;-67
2022/03/25 02:57:02;;;;;;;51.80;28.20;;;;;;;5.41;79.91;102763.88;5240510;28;20036;-67
2022/03/25 02:59:33;;;;;;;55.58;29.58;;;;;;;5.40;79.62;102756.81;5243793;28;20035;-67
2022/03/25 03:02:05;;;;;;;51.25;29.70;;;;;;;5.30;79.57;102757.03;5235201;28;20033;-67
2022/03/25 03:04:37;;;;;;;52.55;29.92;;;;;;;5.32;79.57;102758.78;5234710;28;20040;-67
2022/03/25 03:07:09;;;;;;;54.10;30.25;;;;;;;5.34;79.22;102756.97;5241086;28;20483;-67
2022/03/25 03:09:40;;;;;;;56.55;30.13;;;;;;;5.21;79.46;102761.66;5244754;28;20024;-67
2022/03/25 03:12:11;;;;;;;54.55;30.58;;;;;;;5.08;79.83;102761.97;5239714;28;20554;-67
2022/03/25 03:14:42;;;;;;;52.17;29.73;;;;;;;5.06;80.21;102763.78;5240807;28;20516;-67
2022/03/25 03:17:15;;;;;;;56.25;29.83;;;;;;;5.07;79.99;102764.63;5241445;28;20029;-67
2022/03/25 03:19:46;;;;;;;52.78;30.30;;;;;;;4.98;80.16;102764.84;5240107;28;20094;-67
2022/03/25 03:22:17;;;;;;;52.28;29.45;;;;;;;5.01;79.77;102765.66;5238262;28;20459;-67
2022/03/25 03:24:49;;;;;;;53.95;30.10;;;;;;;5.00;79.81;102773.59;5238239;28;20029;-67
2022/03/25 03:27:20;;;;;;;55.33;29.60;;;;;;;4.96;80.13;102761.34;5240728;28;20036;-67
2022/03/25 03:29:52;;;;;;;58.13;30.70;;;;;;;4.94;80.19;102769.31;5242783;28;20116;-67
2022/03/25 03:32:25;;;;;;;57.92;31.40;;;;;;;4.83;80.15;102761.63;5240972;28;20044;-67
2022/03/25 03:34:57;;;;;;;39.78;23.67;;;;;;;4.83;80.80;102761.63;5239379;28;20025;-67
2022/03/25 03:37:28;;;;;;;56.95;31.02;;;;;;;4.76;80.72;102767.09;5250728;28;20040;-67
2022/03/25 03:39:59;;;;;;;56.70;30.17;;;;;;;4.68;80.77;102761.97;5253919;28;20025;-67
2022/03/25 03:42:30;;;;;;;55.03;30.70;;;;;;;4.61;82.04;102758.56;5245109;28;20566;-67
2022/03/25 03:45:02;;;;;;;56.72;30.50;;;;;;;4.61;81.06;102755.06;5236067;28;20076;-67
2022/03/25 03:47:35;;;;;;;55.72;30.98;;;;;;;4.59;80.79;102760.38;5237927;28;20339;-67
2022/03/25 03:50:09;;;;;;;53.85;31.02;;;;;;;4.55;80.98;102765.75;5238773;28;20033;-67
2022/03/25 03:52:41;;;;;;;55.45;30.52;;;;;;;4.59;81.10;102768.31;5238183;28;20046;-67
2022/03/25 03:55:13;;;;;;;58.25;30.83;;;;;;;4.46;81.89;102764.16;5234904;28;20025;-67
2022/03/25 03:57:44;;;;;;;57.88;31.63;;;;;;;4.47;81.52;102760.63;5241138;28;20037;-67
2022/03/25 04:00:15;;;;;;;57.22;31.42;;;;;;;4.47;83.07;102768.56;5237544;28;20116;-67
2022/03/25 04:02:47;;;;;;;57.20;31.45;;;;;;;4.41;82.25;102761.63;5239003;28;20079;-67
2022/03/25 04:05:19;;;;;;;57.03;31.05;;;;;;;4.30;83.31;102760.97;5235196;28;20065;-67
2022/03/25 04:07:50;;;;;;;56.92;31.00;;;;;;;4.36;83.72;102758.19;5235670;28;20028;-67
2022/03/25 04:10:21;;;;;;;58.45;31.60;;;;;;;4.28;82.16;102765.41;5236865;28;20137;-67
2022/03/25 04:12:53;;;;;;;57.53;31.67;;;;;;;4.23;84.07;102765.47;5234435;28;20065;-67
2022/03/25 04:15:24;;;;;;;56.85;30.88;;;;;;;4.08;82.82;102761.34;5235406;28;20050;-67
2022/03/25 04:17:56;;;;;;;59.35;32.33;;;;;;;4.13;83.96;102766.56;5240113;28;20578;-67
2022/03/25 04:20:27;;;;;;;59.95;33.00;;;;;;;4.04;83.15;102759.66;5235213;28;20086;-67
2022/03/25 04:22:59;;;;;;;52.80;29.95;;;;;;;4.04;83.43;102764.06;5233641;28;20072;-67
2022/03/25 04:25:30;;;;;;;57.50;31.55;;;;;;;3.90;83.51;102770.47;5230586;28;20294;-67
2022/03/25 04:28:01;;;;;;;56.83;31.48;;;;;;;3.95;85.67;102766.88;5233168;28;20600;-67
2022/03/25 04:30:34;;;;;;;59.03;32.38;;;;;;;3.90;85.59;102773.13;5230478;28;20135;-67
2022/03/25 04:33:06;;;;;;;55.70;30.52;;;;;;;3.83;85.29;102773.25;5247302;28;20063;-67
2022/03/25 04:35:37;;;;;;;59.65;31.88;;;;;;;3.80;85.44;102778.59;5235613;28;20033;-67
2022/03/25 04:38:09;;;;;;;60.75;32.30;;;;;;;3.84;84.85;102775.00;5237351;28;20037;-67
2022/03/25 04:40:41;;;;;;;57.83;31.17;;;;;;;3.80;nan;102781.25;5233738;28;20029;-67
2022/03/25 04:43:12;;;;;;;57.58;31.80;;;;;;;3.80;84.79;102786.53;5233084;28;20025;-67
2022/03/25 04:45:44;;;;;;;59.42;32.80;;;;;;;3.67;84.89;102784.06;5235733;28;20608;-67
2022/03/25 04:48:15;;;;;;;60.80;33.47;;;;;;;3.70;85.08;102780.50;5233551;28;20388;-67
2022/03/25 04:50:46;;;;;;;52.65;29.92;;;;;;;3.70;85.74;102776.09;5234433;28;20033;-67
2022/03/25 04:53:18;;;;;;;58.58;31.98;;;;;;;3.62;84.63;102783.25;5244984;28;20029;-67
2022/03/25 04:55:49;;;;;;;62.22;31.90;;;;;;;3.57;84.95;102782.47;5242678;28;20363;-67
2022/03/25 04:58:21;;;;;;;58.72;31.55;;;;;;;3.47;85.26;102787.03;5233164;28;20114;-67
2022/03/25 05:00:53;;;;;;;57.03;31.80;;;;;;;3.50;85.20;102788.75;5233772;28;20442;-67
2022/03/25 05:03:24;;;;;;;60.60;32.67;;;;;;;3.45;85.25;102786.19;5231549;28;20033;-67
2022/03/25 05:05:56;;;;;;;62.83;33.00;;;;;;;3.48;85.32;102788.75;5233516;28;20025;-67
2022/03/25 05:08:27;;;;;;;57.33;32.10;;;;;;;3.40;85.71;102784.53;5234678;28;20105;-67
2022/03/25 05:10:58;;;;;;;59.75;32.45;;;;;;;3.34;85.37;102791.63;5229754;28;20394;-67
2022/03/25 05:13:29;;;;;;;61.72;32.95;;;;;;;3.31;86.16;102788.16;5234340;28;20033;-67
2022/03/25 05:16:00;;;;;;;61.78;32.38;;;;;;;3.33;85.72;102781.09;5229580;28;20289;-67
2022/03/25 05:18:32;;;;;;;63.97;32.60;;;;;;;3.23;85.64;102792.69;5236912;28;20029;-67
2022/03/25 05:21:05;;;;;;;58.50;31.90;;;;;;;3.28;86.12;102791.72;5230230;28;20059;-67
2022/03/25 05:23:36;;;;;;;57.53;31.52;;;;;;;3.28;86.64;102796.09;5234047;28;20035;-67
2022/03/25 05:26:08;;;;;;;62.80;32.28;;;;;;;3.14;86.17;102794.56;5230613;28;20048;-67
2022/03/25 05:28:39;;;;;;;61.03;33.33;;;;;;;3.20;86.56;102784.78;5235817;28;20394;-67
2022/03/25 05:31:11;;;;;;;61.63;33.20;;;;;;;3.22;87.89;102793.56;5234176;28;20136;-67
2022/03/25 05:33:43;;;;;;;63.17;33.08;;;;;;;3.07;87.15;102797.31;5233760;28;20058;-67
2022/03/25 05:36:14;;;;;;;62.33;32.53;;;;;;;3.12;87.94;102792.81;5233999;28;20506;-67
2022/03/25 05:38:45;;;;;;;64.45;32.97;;;;;;;3.08;87.60;102786.72;5235184;28;20502;-67
2022/03/25 05:41:16;;;;;;;61.45;32.70;;;;;;;3.10;87.79;102791.97;5232284;28;20329;-67
2022/03/25 05:43:48;;;;;;;64.38;33.45;;;;;;;3.12;88.34;102804.22;5243908;28;20028;-67
2022/03/25 05:46:20;;;;;;;63.53;34.28;;;;;;;3.08;88.40;102799.03;5239131;28;20060;-67
2022/03/25 05:48:51;;;;;;;65.32;34.38;;;;;;;3.08;88.83;102799.03;5241153;28;20036;-67
2022/03/25 05:51:22;;;;;;;62.38;32.55;;;;;;;3.05;87.62;102809.59;5241949;28;20546;-67
2022/03/25 05:53:53;;;;;;;57.88;30.90;;;;;;;3.04;87.81;102805.25;5239938;28;20085;-67
2022/03/25 05:56:25;;;;;;;59.58;31.48;;;;;;;3.05;87.70;102804.34;5246208;28;20032;-67
2022/03/25 05:58:56;;;;;;;66.70;34.65;;;;;;;3.11;88.29;102805.13;5245397;28;20059;-68
2022/03/25 06:01:29;;;;;;;60.72;32.35;;;;;;;3.09;88.34;102812.19;5242675;28;20471;-67
2022/03/25 06:04:00;;;;;;;58.13;33.25;;;;;;;3.08;88.19;102802.53;5251344;28;20028;-67
2022/03/25 06:06:32;;;;;;;67.32;33.63;;;;;;;3.07;88.27;102814.00;5249295;28;20035;-67
2022/03/25 06:09:03;;;;;;;60.63;32.88;;;;;;;3.05;88.07;102813.13;5243355;28;20266;-67
2022/03/25 06:11:34;;;;;;;63.00;32.60;;;;;;;3.06;89.13;102808.72;5246634;28;20614;-67
2022/03/25 06:14:05;;;;;;;62.80;34.05;;;;;;;3.14;88.71;102810.38;5248890;28;20064;-67
2022/03/25 06:16:39;;;;;;;66.63;34.22;;;;;;;3.21;90.25;102819.06;5246274;28;20438;-67
2022/03/25 06:19:12;;;;;;;67.72;34.95;;;;;;;3.18;89.32;102812.97;5248372;28;20076;-67
2022/03/25 06:21:44;;;;;;;66.65;33.88;;;;;;;3.23;88.77;102821.69;5251338;28;20311;-67
2022/03/25 06:24:16;;;;;;;62.58;34.10;;;;;;;3.25;89.35;102825.19;5250829;28;20538;-67
2022/03/25 06:26:48;;;;;;;73.93;35.67;;;;;;;3.32;89.96;102822.44;5246068;28;20320;-67
2022/03/25 06:29:19;;;;;;;69.60;36.88;;;;;;;3.36;89.18;102818.00;5235320;28;20040;-67
2022/03/25 06:31:51;;;;;;;67.10;36.60;;;;;;;3.44;88.79;102823.16;5248427;28;20055;-67
2022/03/25 06:34:23;;;;;;;70.28;35.10;;;;;;;3.49;88.61;102829.22;5242943;28;20395;-67
2022/03/25 06:36:54;;;;;;;72.47;37.03;;;;;;;3.57;88.60;102826.47;5270780;28;20113;-67
2022/03/25 06:39:25;;;;;;;70.88;37.15;;;;;;;3.61;88.57;102839.59;5238844;28;20091;-67
2022/03/25 06:41:56;;;;;;;79.78;37.63;;;;;;;3.66;88.26;102836.88;5232034;28;20153;-67
2022/03/25 06:44:28;;;;;;;74.75;39.15;;;;;;;3.70;88.20;102841.22;5233433;28;20281;-67
2022/03/25 06:46:59;;;;;;;67.07;37.40;;;;;;;3.76;88.14;102841.13;5233864;28;20048;-67
2022/03/25 06:49:31;;;;;;;73.72;39.47;;;;;;;3.85;87.68;102840.09;5235961;28;20029;-67
2022/03/25 06:52:02;;;;;;;76.78;40.92;;;;;;;3.90;87.93;102835.63;5238436;28;20075;-67
2022/03/25 06:54:34;;;;;;;75.15;38.97;;;;;;;3.98;87.63;102830.22;5234566;28;20164;-67
2022/03/25 06:57:06;;;;;;;74.93;40.17;;;;;;;4.00;86.85;102834.56;5248333;28;20082;-67
2022/03/25 06:59:38;;;;;;;76.40;41.13;;;;;;;4.12;86.98;102834.38;5238912;28;20029;-67
2022/03/25 07:02:10;;;;;;;77.65;41.22;;;;;;;4.22;86.83;102836.84;5251383;28;20056;-67
2022/03/25 07:04:42;;;;;;;77.95;42.53;;;;;;;4.27;86.74;102840.28;5247556;28;20029;-67
2022/03/25 07:07:15;;;;;;;76.03;40.88;;;;;;;4.33;86.46;102842.78;5278860;28;20021;-67
2022/03/25 07:09:47;;;;;;;73.57;40.45;;;;;;;4.41;86.38;102847.94;5253508;28;20033;-67
2022/03/25 07:12:18;;;;;;;78.18;42.38;;;;;;;4.53;86.26;102854.81;5257555;28;20043;-67
2022/03/25 07:14:50;;;;;;;76.18;42.10;;;;;;;4.59;nan;102852.91;5250487;28;20076;-67
2022/03/25 07:17:21;;;;;;;79.72;44.00;;;;;;;4.66;85.76;102854.53;5238641;28;20527;-67
2022/03/25 07:19:52;;;;;;;82.45;43.97;;;;;;;4.75;85.74;102857.88;5247916;28;20025;-67
2022/03/25 07:22:23;;;;;;;85.40;46.30;;;;;;;4.88;85.52;102854.09;5249889;28;20116;-67
2022/03/25 07:24:56;;;;;;;86.35;45.85;;;;;;;4.96;85.20;102859.22;5252865;28;20056;-67
2022/03/25 07:27:27;;;;;;;80.35;43.95;;;;;;;5.05;85.54;102864.34;5249430;28;20029;-67
2022/03/25 07:29:58;;;;;;;79.68;43.53;;;;;;;5.07;85.18;102870.47;5251714;28;20178;-67
2022/03/25 07:32:30;;;;;;;80.00;45.10;;;;;;;5.24;84.95;102870.13;5249492;28;20658;-67
2022/03/25 07:35:02;;;;;;;82.43;46.40;;;;;;;5.27;84.12;102863.00;5250959;28;20487;-67
2022/03/25 07:37:34;;;;;;;80.93;44.67;;;;;;;5.37;84.27;102865.41;5242727;28;20044;-67
2022/03/25 07:40:08;;;;;;;80.53;45.72;;;;;;;5.47;83.80;102878.41;5247250;28;20035;-67
2022/03/25 07:42:42;;;;;;;81.38;46.03;;;;;;;5.59;83.11;102879.91;5254955;28;20032;-67
2022/03/25 07:45:16;;;;;;;83.68;46.60;;;;;;;5.75;83.44;102876.91;5248511;28;20024;-68
2022/03/25 07:47:49;;;;;;;;;;;;;;;5.70;83.45;102882.31;5249199;28;20471;-67
2022/03/25 07:50:23;;;;;;;80.28;44.28;;;;;;;5.92;82.46;102887.97;5249237;28;20034;-67
2022/03/25 07:52:54;;;;;;;79.55;45.63;;;;;;;6.01;82.00;102885.13;5254970;28;20040;-67
2022/03/25 07:55:25;;;;;;;81.90;46.15;;;;;;;6.01;81.94;102887.78;5242608;28;20246;-67
2022/03/25 07:57:57;;;;;;;77.38;44.72;;;;;;;6.10;81.91;102889.34;5243230;28;21035;-67
2022/03/25 08:00:28;;;;;;;85.13;46.78;;;;;;;6.27;81.48;102904.81;5244318;28;20116;-67
2022/03/25 08:02:59;;;;;;;80.50;45.28;;;;;;;6.42;80.25;102903.56;5246355;28;20084;-67
2022/03/25 08:05:30;;;;;;;77.07;46.20;;;;;;;6.55;79.82;102896.16;5249696;28;20386;-67
2022/03/25 08:08:03;;;;;;;85.38;45.53;;;;;;;6.63;78.45;102902.97;5247904;28;20044;-67
2022/03/25 08:10:35;;;;;;;76.65;43.95;;;;;;;6.80;77.76;102907.84;5248908;28;20087;-67
2022/03/25 08:13:09;;;;;;;79.28;44.35;;;;;;;6.93;77.52;102905.72;5248919;28;20048;-65
2022/03/25 08:15:40;;;;;;;76.68;43.50;;;;;;;7.09;76.78;102905.28;5242403;28;20195;-66
2022/03/25 08:18:13;;;;;;;76.90;44.15;;;;;;;7.18;76.02;102903.22;5249834;28;20037;-66
2022/03/25 08:20:47;;;;;;;75.05;43.15;;;;;;;7.41;74.20;102901.69;5250501;28;20025;-66
2022/03/25 08:29:03;;;;;;;72.80;41.17;;;;;;;7.80;71.75;102920.81;5246434;28;20033;-66
2022/03/25 08:31:34;;;;;;;69.60;40.45;;;;;;;7.94;70.55;102914.19;5249493;28;20029;-66
2022/03/25 08:34:08;;;;;;;66.53;40.40;;;;;;;8.04;70.43;102921.84;5244725;28;20025;-66
2022/03/25 08:36:40;;;;;;;66.45;39.40;;;;;;;8.15;68.99;102923.28;5251791;28;20025;-66
2022/03/25 08:39:12;;;;;;;70.45;38.60;;;;;;;8.29;68.90;102930.81;5250085;28;20032;-66
2022/03/25 08:41:44;;;;;;;69.55;40.03;;;;;;;8.49;67.97;102930.16;5248055;28;20098;-66
2022/03/25 08:44:15;;;;;;;71.22;40.90;;;;;;;8.57;67.55;102929.00;5251827;28;20031;-66
2022/03/25 08:46:47;;;;;;;68.72;39.60;;;;;;;8.74;67.45;102928.38;5247799;28;20025;-66
2022/03/25 08:49:18;;;;;;;70.75;40.00;;;;;;;8.91;66.70;102917.13;5250305;28;20017;-66
2022/03/25 08:51:49;;;;;;;66.30;38.33;;;;;;;8.99;65.91;102930.16;5251408;28;20059;-66
2022/03/25 08:54:21;;;;;;;70.78;39.58;;;;;;;9.08;65.22;102920.97;5246995;28;20503;-65
2022/03/25 08:56:53;;;;;;;74.70;39.97;;;;;;;9.22;64.58;102924.00;5246130;28;20037;-66
2022/03/25 08:59:24;;;;;;;67.18;38.30;;;;;;;9.25;64.99;102934.53;5247963;28;20039;-66
2022/03/25 09:01:56;;;;;;;61.65;37.17;;;;;;;9.33;66.51;102929.78;5251400;28;20284;-66
2022/03/25 09:04:30;;;;;;;62.25;36.90;;;;;;;9.40;64.69;102935.75;5251824;28;20593;-65
2022/03/25 09:07:01;;;;;;;59.58;37.10;;;;;;;9.53;64.62;102934.38;5245068;28;20403;-66
2022/03/25 09:09:32;;;;;;;61.85;35.50;;;;;;;9.60;62.53;102942.97;5253833;28;20025;-65
2022/03/25 09:12:04;;;;;;;59.50;34.55;;;;;;;9.66;61.95;102948.06;5248378;28;20077;-66
2022/03/25 09:14:35;;;;;;;61.67;35.03;;;;;;;9.79;62.21;102940.47;5252054;28;20048;-66
2022/03/25 09:17:08;;;;;;;64.80;37.60;;;;;;;9.87;61.96;102941.03;5251306;28;20044;-66
2022/03/25 09:19:39;;;;;;;58.92;35.20;;;;;;;9.95;61.13;102936.28;5252291;28;20029;-66
2022/03/25 09:22:10;;;;;;;62.83;35.17;;;;;;;10.17;61.33;102949.59;5250696;28;20569;-66
2022/03/25 09:24:42;;;;;;;55.85;34.00;;;;;;;10.14;59.20;102946.19;5246555;28;20039;-66
2022/03/25 09:27:13;;;;;;;58.00;33.88;;;;;;;10.34;59.91;102953.41;5250024;28;20021;-66
2022/03/25 09:29:45;;;;;;;57.42;33.83;;;;;;;10.36;58.82;102952.41;5243561;28;20176;-66
2022/03/25 09:32:16;;;;;;;60.03;35.20;;;;;;;10.45;58.73;102942.25;5253261;28;20024;-66
2022/03/25 09:37:49;;;;;;;57.30;33.95;;;;;;;10.75;57.88;102946.28;5249254;28;20068;-66
2022/03/25 09:40:25;;;;;;;55.20;33.05;;;;;;;10.87;55.76;102942.19;5251512;28;20452;-66
2022/03/25 09:42:57;;;;;;;53.70;31.50;;;;;;;10.98;55.47;102941.75;5248896;28;20036;-66
2022/03/25 09:45:30;;;;;;;56.30;32.20;;;;;;;11.05;54.82;102945.88;5243772;28;20531;-66
2022/03/25 09:48:03;;;;;;;49.10;30.52;;;;;;;11.10;55.15;102940.31;5245059;28;20062;-66
2022/03/25 09:50:37;;;;;;;54.20;32.42;;;;;;;11.14;53.31;102941.91;5244802;28;20059;-66
2022/03/25 09:53:08;;;;;;;54.83;31.13;;;;;;;11.35;52.74;102940.06;5248621;28;20510;-66
2022/03/25 09:55:42;;;;;;;52.42;31.05;;;;;;;11.50;52.48;102934.00;5248042;28;20025;-66
2022/03/25 09:58:22;;;;;;;50.55;28.98;;;;;;;11.57;50.92;102929.25;5249555;28;20044;-66
2022/03/25 10:00:54;;;;;;;46.45;27.45;;;;;;;11.68;51.07;102931.44;5249403;28;20025;-66
2022/03/25 10:03:33;;;;;;;43.28;25.23;;;;;;;11.72;50.82;102928.53;5248442;28;20032;-66
2022/03/25 10:06:10;;;;;;;43.58;26.02;;;;;;;11.78;50.39;102928.22;5244147;28;20132;-66
2022/03/25 10:08:43;;;;;;;39.35;22.77;;;;;;;11.82;49.04;102928.94;5242263;28;20392;-66
2022/03/25 10:11:25;;;;;;;42.90;24.50;;;;;;;11.85;50.61;102942.19;5248812;28;20032;-66
2022/03/25 10:14:18;;;;;;;44.40;26.00;;;;;;;11.93;49.74;102937.34;5242624;28;20434;-66
2022/03/25 10:16:51;;;;;;;41.33;23.77;;;;;;;12.02;48.21;102940.50;5251603;28;20087;-67
2022/03/25 10:19:24;;;;;;;41.58;24.38;;;;;;;12.06;47.47;102937.63;5250802;28;20087;-66
2022/03/25 10:22:00;;;;;;;41.42;24.90;;;;;;;12.09;47.21;102932.09;5248225;28;20570;-66
2022/03/25 10:24:48;;;;;;;42.97;23.65;;;;;;;12.22;46.81;102927.00;5250543;28;20115;-66
2022/03/25 10:27:23;;;;;;;39.78;24.77;;;;;;;12.33;47.06;102929.13;5250015;28;20033;-67
2022/03/25 10:29:57;;;;;;;44.13;24.63;;;;;;;12.39;48.43;102922.59;5251322;28;20368;-67
2022/03/25 10:32:29;;;;;;;42.05;25.38;;;;;;;12.42;47.54;102925.13;5243915;28;20041;-67
2022/03/25 10:35:10;;;;;;;44.55;25.45;;;;;;;12.52;47.01;102923.72;5249609;28;20033;-67
2022/03/25 10:37:56;;;;;;;44.20;24.50;;;;;;;12.58;48.34;102926.09;5249379;28;20036;-67
2022/03/25 10:40:28;;;;;;;37.42;22.20;;;;;;;12.66;47.01;102925.69;5248457;28;20537;-67
2022/03/25 10:43:07;;;;;;;40.20;23.45;;;;;;;12.71;46.80;102931.66;5247110;28;20043;-67
2022/03/25 10:45:40;;;;;;;44.20;23.60;;;;;;;12.79;46.65;102920.53;5249475;28;20844;-67
2022/03/25 10:48:15;;;;;;;38.38;23.60;;;;;;;12.92;45.53;102916.25;5252192;28;20028;-67
2022/03/25 10:51:05;;;;;;;40.35;22.80;;;;;;;12.87;47.18;102918.34;5254798;28;20025;-67
2022/03/25 10:53:38;;;;;;;40.03;23.38;;;;;;;13.07;43.46;102920.81;5252200;28;20108;-67
2022/03/25 10:56:12;;;;;;;37.40;22.35;;;;;;;13.11;44.05;102917.00;5250576;28;20128;-67
2022/03/25 10:58:55;;;;;;;35.65;20.92;;;;;;;13.12;44.02;102910.72;5251591;28;20463;-67
2022/03/25 11:01:26;;;;;;;39.38;22.98;;;;;;;13.20;44.24;102912.13;5241168;28;20021;-67
2022/03/25 11:03:58;;;;;;;39.60;23.45;;;;;;;13.16;45.09;102916.78;5248146;28;20035;-67
2022/03/25 11:06:31;;;;;;;37.47;22.38;;;;;;;13.04;44.11;102918.31;5252147;28;20556;-67
2022/03/25 11:09:04;;;;;;;37.38;24.00;;;;;;;13.25;44.00;102907.34;5248753;28;20037;-67
2022/03/25 11:11:37;;;;;;;38.80;23.73;;;;;;;13.30;43.70;102908.84;5249079;28;20036;-67
2022/03/25 11:14:09;;;;;;;39.13;24.43;;;;;;;13.34;44.39;102907.75;5250365;28;20037;-67
2022/03/25 11:16:54;;;;;;;33.95;21.85;;;;;;;13.40;43.93;102903.84;5246851;28;20501;-67
2022/03/25 11:19:26;;;;;;;39.65;22.83;;;;;;;13.66;43.58;102913.13;5248072;28;20135;-67
2022/03/25 11:21:57;;;;;;;36.92;22.73;;;;;;;13.63;43.45;102910.59;5246815;28;20029;-67
2022/03/25 11:24:39;;;;;;;40.03;23.75;;;;;;;13.57;45.10;102908.28;5249212;28;20028;-67
2022/03/25 11:27:25;;;;;;;37.47;23.77;;;;;;;13.56;44.48;102911.94;5251750;28;20060;-67
2022/03/25 11:30:09;;;;;;;38.75;22.73;;;;;;;13.72;44.35;102906.56;5247950;28;20029;-66
2022/03/25 11:32:56;;;;;;;34.78;20.95;;;;;;;13.80;43.53;102900.75;5256367;28;20037;-67
2022/03/25 11:35:32;;;;;;;35.58;21.63;;;;;;;13.96;42.31;102898.03;5254456;28;20062;-65
2022/03/25 11:38:12;;;;;;;38.40;22.25;;;;;;;13.96;41.63;102895.34;5251027;28;20087;-66
2022/03/25 11:40:52;;;;;;;38.25;22.75;;;;;;;13.97;42.51;102895.28;5254504;28;20041;-65
2022/03/25 11:43:27;;;;;;;43.80;24.98;;;;;;;14.04;42.63;102885.06;5253137;28;20486;-66
2022/03/25 11:46:04;;;;;;;44.67;25.65;;;;;;;14.24;42.29;102892.78;5251925;28;20063;-65
2022/03/25 11:48:38;;;;;;;46.58;26.33;;;;;;;14.26;41.90;102885.50;5246664;28;20037;-64
2022/03/25 11:51:30;;;;;;;44.10;27.20;;;;;;;14.35;43.74;102889.47;5252242;28;20089;-64